sensor_id;sensor_type;location;lat;lon;timestamp;temperature;humidity
15700;DHT22;7950;42.744;23.174;2023-12-20T00:02:02;-0.40;99.90
15700;DHT22;7950;42.744;23.174;2023-12-20T00:04:31;-0.40;99.90
15700;DHT22;7950;42.744;23.174;2023-12-20T00:07:00;-0.40;99.90
15700;DHT22;7950;42.744;23.174;2023-12-20T00:09:29;-0.30;99.90
15700;DHT22;7950;42.744;23.174;2023-12-20T00:11:57;-0.30;99.90
15700;DHT22;7950;42.744;23.174;2023-12-20T00:14:26;-0.30;99.90
15700;DHT22;7950;42.744;23.174;2023-12-20T00:16:56;-0.40;99.90
15700;DHT22;7950;42.744;23.174;2023-12-20T00:19:24;-0.40;99.90
15700;DHT22;7950;42.744;23.174;2023-12-20T00:21:53;-0.50;99.90
15700;DHT22;7950;42.744;23.174;2023-12-20T00:24:22;-0.50;99.90
15700;DHT22;7950;42.744;23.174;2023-12-20T00:26:50;-0.40;99.90
15700;DHT22;7950;42.744;23.174;2023-12-20T00:29:19;-0.50;99.90
15700;DHT22;7950;42.744;23.174;2023-12-20T00:31:47;-0.50;99.90
15700;DHT22;7950;42.744;23.174;2023-12-20T00:34:17;-0.50;99.90
15700;DHT22;7950;42.744;23.174;2023-12-20T00:36:46;-0.50;99.90
15700;DHT22;7950;42.744;23.174;2023-12-20T00:39:14;-0.50;99.90
15700;DHT22;7950;42.744;23.174;2023-12-20T00:41:43;-0.50;99.90
15700;DHT22;7950;42.744;23.174;2023-12-20T00:44:11;-0.60;99.90
15700;DHT22;7950;42.744;23.174;2023-12-20T00:46:40;-0.70;99.90
15700;DHT22;7950;42.744;23.174;2023-12-20T00:49:08;-0.80;99.90
15700;DHT22;7950;42.744;23.174;2023-12-20T00:51:38;-0.80;99.90
15700;DHT22;7950;42.744;23.174;2023-12-20T00:54:07;-0.70;99.90
15700;DHT22;7950;42.744;23.174;2023-12-20T00:56:36;-0.70;99.90
15700;DHT22;7950;42.744;23.174;2023-12-20T00:59:04;-0.70;99.90
15700;DHT22;7950;42.744;23.174;2023-12-20T01:01:33;-0.60;99.90
15700;DHT22;7950;42.744;23.174;2023-12-20T01:04:01;-0.60;99.90
15700;DHT22;7950;42.744;23.174;2023-12-20T01:06:30;-0.60;99.90
15700;DHT22;7950;42.744;23.174;2023-12-20T01:09:00;-0.60;99.90
15700;DHT22;7950;42.744;23.174;2023-12-20T01:11:29;-0.60;99.90
15700;DHT22;7950;42.744;23.174;2023-12-20T01:13:58;-0.70;99.90
15700;DHT22;7950;42.744;23.174;2023-12-20T01:16:26;-0.60;99.90
15700;DHT22;7950;42.744;23.174;2023-12-20T01:18:55;-0.60;99.90
15700;DHT22;7950;42.744;23.174;2023-12-20T01:21:24;-0.60;99.90
15700;DHT22;7950;42.744;23.174;2023-12-20T01:23:52;-0.60;99.90
15700;DHT22;7950;42.744;23.174;2023-12-20T01:26:22;-0.60;99.90
15700;DHT22;7950;42.744;23.174;2023-12-20T01:28:51;-0.50;99.90
15700;DHT22;7950;42.744;23.174;2023-12-20T01:31:20;-0.50;99.90
15700;DHT22;7950;42.744;23.174;2023-12-20T01:33:49;-0.50;99.90
15700;DHT22;7950;42.744;23.174;2023-12-20T01:36:17;-0.50;99.90
15700;DHT22;7950;42.744;23.174;2023-12-20T01:38:46;-0.50;99.90
15700;DHT22;7950;42.744;23.174;2023-12-20T01:41:15;-0.60;99.90
15700;DHT22;7950;42.744;23.174;2023-12-20T01:43:45;-0.70;99.90
15700;DHT22;7950;42.744;23.174;2023-12-20T01:46:18;-0.70;99.90
15700;DHT22;7950;42.744;23.174;2023-12-20T01:48:48;-0.60;99.90
15700;DHT22;7950;42.744;23.174;2023-12-20T01:51:18;-0.70;99.90
15700;DHT22;7950;42.744;23.174;2023-12-20T01:53:48;-0.80;99.90
15700;DHT22;7950;42.744;23.174;2023-12-20T01:56:17;-0.80;99.90
15700;DHT22;7950;42.744;23.174;2023-12-20T01:58:47;-0.80;99.90
15700;DHT22;7950;42.744;23.174;2023-12-20T02:01:16;-0.70;99.90
15700;DHT22;7950;42.744;23.174;2023-12-20T02:03:46;-0.80;99.90
15700;DHT22;7950;42.744;23.174;2023-12-20T02:06:16;-0.90;99.90
15700;DHT22;7950;42.744;23.174;2023-12-20T02:08:46;-0.90;99.90
15700;DHT22;7950;42.744;23.174;2023-12-20T02:11:15;-0.90;99.90
15700;DHT22;7950;42.744;23.174;2023-12-20T02:13:45;-0.90;99.90
15700;DHT22;7950;42.744;23.174;2023-12-20T02:16:14;-1.10;99.90
15700;DHT22;7950;42.744;23.174;2023-12-20T02:18:43;-1.00;99.90
15700;DHT22;7950;42.744;23.174;2023-12-20T02:21:12;-1.00;99.90
15700;DHT22;7950;42.744;23.174;2023-12-20T02:23:42;-1.00;99.90
15700;DHT22;7950;42.744;23.174;2023-12-20T02:26:11;-1.00;99.90
15700;DHT22;7950;42.744;23.174;2023-12-20T02:28:41;-1.00;99.90
15700;DHT22;7950;42.744;23.174;2023-12-20T02:31:09;-1.00;99.90
15700;DHT22;7950;42.744;23.174;2023-12-20T02:33:38;-1.00;99.90
15700;DHT22;7950;42.744;23.174;2023-12-20T02:36:09;-1.00;99.90
15700;DHT22;7950;42.744;23.174;2023-12-20T02:38:37;-1.10;99.90
15700;DHT22;7950;42.744;23.174;2023-12-20T02:41:07;-1.00;99.90
15700;DHT22;7950;42.744;23.174;2023-12-20T02:43:35;-1.10;99.90
15700;DHT22;7950;42.744;23.174;2023-12-20T02:46:04;-1.10;99.90
15700;DHT22;7950;42.744;23.174;2023-12-20T02:48:32;-1.10;99.90
15700;DHT22;7950;42.744;23.174;2023-12-20T02:51:01;-1.20;99.90
15700;DHT22;7950;42.744;23.174;2023-12-20T02:53:30;-1.20;99.90
15700;DHT22;7950;42.744;23.174;2023-12-20T02:55:58;-1.20;99.90
15700;DHT22;7950;42.744;23.174;2023-12-20T02:58:28;-1.20;99.90
15700;DHT22;7950;42.744;23.174;2023-12-20T03:00:57;-1.20;99.90
15700;DHT22;7950;42.744;23.174;2023-12-20T03:03:25;-1.20;99.90
15700;DHT22;7950;42.744;23.174;2023-12-20T03:05:54;-1.30;99.90
15700;DHT22;7950;42.744;23.174;2023-12-20T03:08:22;-1.30;99.90
15700;DHT22;7950;42.744;23.174;2023-12-20T03:10:54;-1.30;99.90
15700;DHT22;7950;42.744;23.174;2023-12-20T03:13:22;-1.30;99.90
15700;DHT22;7950;42.744;23.174;2023-12-20T03:15:52;-1.30;99.90
15700;DHT22;7950;42.744;23.174;2023-12-20T03:18:21;-1.30;99.90
15700;DHT22;7950;42.744;23.174;2023-12-20T03:20:50;-1.30;99.90
15700;DHT22;7950;42.744;23.174;2023-12-20T03:23:19;-1.30;99.90
15700;DHT22;7950;42.744;23.174;2023-12-20T03:25:48;-1.30;99.90
15700;DHT22;7950;42.744;23.174;2023-12-20T03:28:16;-1.30;99.90
15700;DHT22;7950;42.744;23.174;2023-12-20T03:30:45;-1.40;99.90
15700;DHT22;7950;42.744;23.174;2023-12-20T03:33:15;-1.40;99.90
15700;DHT22;7950;42.744;23.174;2023-12-20T03:35:44;-1.50;99.90
15700;DHT22;7950;42.744;23.174;2023-12-20T03:38:12;-1.40;99.90
15700;DHT22;7950;42.744;23.174;2023-12-20T03:40:41;-1.50;99.90
15700;DHT22;7950;42.744;23.174;2023-12-20T03:43:10;-1.50;99.90
15700;DHT22;7950;42.744;23.174;2023-12-20T03:45:38;-1.50;99.90
15700;DHT22;7950;42.744;23.174;2023-12-20T03:48:07;-1.50;99.90
15700;DHT22;7950;42.744;23.174;2023-12-20T03:50:37;-1.60;99.90
15700;DHT22;7950;42.744;23.174;2023-12-20T03:53:06;-1.50;99.90
15700;DHT22;7950;42.744;23.174;2023-12-20T03:55:34;-1.60;99.90
15700;DHT22;7950;42.744;23.174;2023-12-20T03:58:03;-1.60;99.90
15700;DHT22;7950;42.744;23.174;2023-12-20T04:00:32;-1.60;99.90
15700;DHT22;7950;42.744;23.174;2023-12-20T04:03:00;-1.60;99.90
15700;DHT22;7950;42.744;23.174;2023-12-20T04:05:29;-1.50;99.90
15700;DHT22;7950;42.744;23.174;2023-12-20T04:08:01;-1.50;99.90
15700;DHT22;7950;42.744;23.174;2023-12-20T04:10:30;-1.40;99.90
15700;DHT22;7950;42.744;23.174;2023-12-20T04:12:59;-1.40;99.90
15700;DHT22;7950;42.744;23.174;2023-12-20T04:15:27;-1.50;99.90
15700;DHT22;7950;42.744;23.174;2023-12-20T04:17:56;-1.40;99.90
15700;DHT22;7950;42.744;23.174;2023-12-20T04:20:24;-1.30;99.90
15700;DHT22;7950;42.744;23.174;2023-12-20T04:22:53;-1.40;99.90
15700;DHT22;7950;42.744;23.174;2023-12-20T04:25:23;-1.40;99.90
15700;DHT22;7950;42.744;23.174;2023-12-20T04:27:52;-1.50;99.90
15700;DHT22;7950;42.744;23.174;2023-12-20T04:30:20;-1.50;99.90
15700;DHT22;7950;42.744;23.174;2023-12-20T04:32:49;-1.40;99.90
15700;DHT22;7950;42.744;23.174;2023-12-20T04:35:18;-1.40;99.90
15700;DHT22;7950;42.744;23.174;2023-12-20T04:37:47;-1.40;99.90
15700;DHT22;7950;42.744;23.174;2023-12-20T04:40:16;-1.40;99.90
15700;DHT22;7950;42.744;23.174;2023-12-20T04:42:46;-1.30;99.90
15700;DHT22;7950;42.744;23.174;2023-12-20T04:45:15;-1.30;99.90
15700;DHT22;7950;42.744;23.174;2023-12-20T04:47:44;-1.20;99.90
15700;DHT22;7950;42.744;23.174;2023-12-20T04:50:14;-1.20;99.90
15700;DHT22;7950;42.744;23.174;2023-12-20T04:52:43;-1.20;99.90
15700;DHT22;7950;42.744;23.174;2023-12-20T04:55:12;-1.20;99.90
15700;DHT22;7950;42.744;23.174;2023-12-20T04:57:40;-1.10;99.90
15700;DHT22;7950;42.744;23.174;2023-12-20T05:00:13;-1.10;99.90
15700;DHT22;7950;42.744;23.174;2023-12-20T05:02:42;-1.10;99.90
15700;DHT22;7950;42.744;23.174;2023-12-20T05:05:11;-1.10;99.90
15700;DHT22;7950;42.744;23.174;2023-12-20T05:07:42;-1.00;99.90
15700;DHT22;7950;42.744;23.174;2023-12-20T05:10:11;-1.00;99.90
15700;DHT22;7950;42.744;23.174;2023-12-20T05:12:39;-1.00;99.90
15700;DHT22;7950;42.744;23.174;2023-12-20T05:15:08;-1.00;99.90
15700;DHT22;7950;42.744;23.174;2023-12-20T05:17:38;-1.00;99.90
15700;DHT22;7950;42.744;23.174;2023-12-20T05:20:08;-1.00;99.90
15700;DHT22;7950;42.744;23.174;2023-12-20T05:22:37;-1.00;99.90
15700;DHT22;7950;42.744;23.174;2023-12-20T05:25:06;-0.90;99.90
15700;DHT22;7950;42.744;23.174;2023-12-20T05:27:35;-0.90;99.90
15700;DHT22;7950;42.744;23.174;2023-12-20T05:30:05;-0.80;99.90
15700;DHT22;7950;42.744;23.174;2023-12-20T05:32:34;-0.80;99.90
15700;DHT22;7950;42.744;23.174;2023-12-20T05:35:05;-0.80;99.90
15700;DHT22;7950;42.744;23.174;2023-12-20T05:37:34;-0.80;99.90
15700;DHT22;7950;42.744;23.174;2023-12-20T05:40:03;-0.90;99.90
15700;DHT22;7950;42.744;23.174;2023-12-20T05:42:33;-0.90;99.90
15700;DHT22;7950;42.744;23.174;2023-12-20T05:45:01;-0.80;99.90
15700;DHT22;7950;42.744;23.174;2023-12-20T05:47:30;-0.80;99.90
15700;DHT22;7950;42.744;23.174;2023-12-20T05:49:59;-0.80;99.90
15700;DHT22;7950;42.744;23.174;2023-12-20T05:52:29;-0.70;99.90
15700;DHT22;7950;42.744;23.174;2023-12-20T05:54:57;-0.80;99.90
15700;DHT22;7950;42.744;23.174;2023-12-20T05:57:28;-0.90;99.90
15700;DHT22;7950;42.744;23.174;2023-12-20T05:59:57;-0.90;99.90
15700;DHT22;7950;42.744;23.174;2023-12-20T06:02:25;-0.80;99.90
15700;DHT22;7950;42.744;23.174;2023-12-20T06:04:54;-0.90;99.90
15700;DHT22;7950;42.744;23.174;2023-12-20T06:07:22;-0.90;99.90
15700;DHT22;7950;42.744;23.174;2023-12-20T06:09:52;-0.80;99.90
15700;DHT22;7950;42.744;23.174;2023-12-20T06:12:21;-0.80;99.90
15700;DHT22;7950;42.744;23.174;2023-12-20T06:14:50;-0.80;99.90
15700;DHT22;7950;42.744;23.174;2023-12-20T06:17:18;-0.70;99.90
15700;DHT22;7950;42.744;23.174;2023-12-20T06:19:47;-0.70;99.90
15700;DHT22;7950;42.744;23.174;2023-12-20T06:22:16;-0.70;99.90
15700;DHT22;7950;42.744;23.174;2023-12-20T06:24:45;-0.70;99.90
15700;DHT22;7950;42.744;23.174;2023-12-20T06:27:15;-0.60;99.90
15700;DHT22;7950;42.744;23.174;2023-12-20T06:29:43;-0.60;99.90
15700;DHT22;7950;42.744;23.174;2023-12-20T06:32:12;-0.60;99.90
15700;DHT22;7950;42.744;23.174;2023-12-20T06:34:40;-0.50;99.90
15700;DHT22;7950;42.744;23.174;2023-12-20T06:37:09;-0.50;99.90
15700;DHT22;7950;42.744;23.174;2023-12-20T06:39:38;-0.50;99.90
15700;DHT22;7950;42.744;23.174;2023-12-20T06:42:07;-0.40;99.90
15700;DHT22;7950;42.744;23.174;2023-12-20T06:44:37;-0.40;99.90
15700;DHT22;7950;42.744;23.174;2023-12-20T06:47:06;-0.30;99.90
15700;DHT22;7950;42.744;23.174;2023-12-20T06:49:35;-0.40;99.90
15700;DHT22;7950;42.744;23.174;2023-12-20T06:52:04;-0.30;99.90
15700;DHT22;7950;42.744;23.174;2023-12-20T06:54:33;-0.30;99.90
15700;DHT22;7950;42.744;23.174;2023-12-20T06:57:02;-0.20;99.90
15700;DHT22;7950;42.744;23.174;2023-12-20T06:59:31;-0.20;99.90
15700;DHT22;7950;42.744;23.174;2023-12-20T07:02:01;-0.10;99.90
15700;DHT22;7950;42.744;23.174;2023-12-20T07:04:30;0.00;99.90
15700;DHT22;7950;42.744;23.174;2023-12-20T07:06:59;0.00;99.90
15700;DHT22;7950;42.744;23.174;2023-12-20T07:09:28;0.10;99.90
15700;DHT22;7950;42.744;23.174;2023-12-20T07:11:56;0.10;99.90
15700;DHT22;7950;42.744;23.174;2023-12-20T07:14:25;0.20;99.90
15700;DHT22;7950;42.744;23.174;2023-12-20T07:16:54;0.30;99.90
15700;DHT22;7950;42.744;23.174;2023-12-20T07:19:24;0.30;99.90
15700;DHT22;7950;42.744;23.174;2023-12-20T07:21:53;0.40;99.90
15700;DHT22;7950;42.744;23.174;2023-12-20T07:24:21;0.40;99.90
15700;DHT22;7950;42.744;23.174;2023-12-20T07:26:50;0.50;99.90
15700;DHT22;7950;42.744;23.174;2023-12-20T07:29:18;0.50;99.90
15700;DHT22;7950;42.744;23.174;2023-12-20T07:31:47;0.50;99.90
15700;DHT22;7950;42.744;23.174;2023-12-20T07:34:16;0.60;99.90
15700;DHT22;7950;42.744;23.174;2023-12-20T07:36:46;0.60;99.90
15700;DHT22;7950;42.744;23.174;2023-12-20T07:39:15;0.60;99.90
15700;DHT22;7950;42.744;23.174;2023-12-20T07:41:43;0.60;99.90
15700;DHT22;7950;42.744;23.174;2023-12-20T07:44:13;0.60;99.90
15700;DHT22;7950;42.744;23.174;2023-12-20T07:46:42;0.70;99.90
15700;DHT22;7950;42.744;23.174;2023-12-20T07:49:11;0.60;99.90
15700;DHT22;7950;42.744;23.174;2023-12-20T07:51:40;0.50;99.90
15700;DHT22;7950;42.744;23.174;2023-12-20T07:54:10;0.50;99.90
15700;DHT22;7950;42.744;23.174;2023-12-20T07:56:38;0.40;99.90
15700;DHT22;7950;42.744;23.174;2023-12-20T07:59:07;0.40;99.90
15700;DHT22;7950;42.744;23.174;2023-12-20T08:01:48;0.30;99.90
15700;DHT22;7950;42.744;23.174;2023-12-20T08:04:17;0.30;99.90
15700;DHT22;7950;42.744;23.174;2023-12-20T08:06:46;0.30;99.90
15700;DHT22;7950;42.744;23.174;2023-12-20T08:09:16;0.30;99.90
15700;DHT22;7950;42.744;23.174;2023-12-20T08:11:45;0.30;99.90
15700;DHT22;7950;42.744;23.174;2023-12-20T08:14:14;0.30;99.90
15700;DHT22;7950;42.744;23.174;2023-12-20T08:16:44;0.30;99.90
15700;DHT22;7950;42.744;23.174;2023-12-20T08:19:13;0.40;99.90
15700;DHT22;7950;42.744;23.174;2023-12-20T08:21:41;0.40;99.90
15700;DHT22;7950;42.744;23.174;2023-12-20T08:24:10;0.50;99.90
15700;DHT22;7950;42.744;23.174;2023-12-20T08:26:40;0.60;99.90
15700;DHT22;7950;42.744;23.174;2023-12-20T08:29:08;0.60;99.90
15700;DHT22;7950;42.744;23.174;2023-12-20T08:31:37;0.70;99.90
15700;DHT22;7950;42.744;23.174;2023-12-20T08:34:05;0.80;99.90
15700;DHT22;7950;42.744;23.174;2023-12-20T08:36:35;0.90;99.90
15700;DHT22;7950;42.744;23.174;2023-12-20T08:39:04;0.90;99.90
15700;DHT22;7950;42.744;23.174;2023-12-20T08:41:35;1.00;99.90
15700;DHT22;7950;42.744;23.174;2023-12-20T08:44:05;1.00;99.90
15700;DHT22;7950;42.744;23.174;2023-12-20T08:46:34;0.90;99.90
15700;DHT22;7950;42.744;23.174;2023-12-20T08:49:02;0.80;99.90
15700;DHT22;7950;42.744;23.174;2023-12-20T08:51:32;0.80;99.90
15700;DHT22;7950;42.744;23.174;2023-12-20T08:54:00;0.70;99.90
15700;DHT22;7950;42.744;23.174;2023-12-20T08:56:30;0.60;99.90
15700;DHT22;7950;42.744;23.174;2023-12-20T08:58:59;0.60;99.90
15700;DHT22;7950;42.744;23.174;2023-12-20T09:01:29;0.50;99.90
15700;DHT22;7950;42.744;23.174;2023-12-20T09:03:58;0.60;99.90
15700;DHT22;7950;42.744;23.174;2023-12-20T09:06:26;0.60;99.90
15700;DHT22;7950;42.744;23.174;2023-12-20T09:08:55;0.50;99.90
15700;DHT22;7950;42.744;23.174;2023-12-20T09:11:23;0.50;99.90
15700;DHT22;7950;42.744;23.174;2023-12-20T09:13:52;0.50;99.90
15700;DHT22;7950;42.744;23.174;2023-12-20T09:16:21;0.50;99.90
15700;DHT22;7950;42.744;23.174;2023-12-20T09:18:51;0.50;99.90
15700;DHT22;7950;42.744;23.174;2023-12-20T09:21:20;0.60;99.90
15700;DHT22;7950;42.744;23.174;2023-12-20T09:23:49;0.70;99.90
15700;DHT22;7950;42.744;23.174;2023-12-20T09:26:17;0.70;99.90
15700;DHT22;7950;42.744;23.174;2023-12-20T09:28:46;0.80;99.90
15700;DHT22;7950;42.744;23.174;2023-12-20T09:31:14;0.80;99.90
15700;DHT22;7950;42.744;23.174;2023-12-20T09:33:43;0.90;99.90
15700;DHT22;7950;42.744;23.174;2023-12-20T09:36:13;1.00;99.90
15700;DHT22;7950;42.744;23.174;2023-12-20T09:38:42;1.00;99.90
15700;DHT22;7950;42.744;23.174;2023-12-20T09:41:13;1.10;99.90
15700;DHT22;7950;42.744;23.174;2023-12-20T09:43:42;1.10;99.90
15700;DHT22;7950;42.744;23.174;2023-12-20T09:46:12;1.10;99.90
15700;DHT22;7950;42.744;23.174;2023-12-20T09:48:47;1.10;99.90
15700;DHT22;7950;42.744;23.174;2023-12-20T09:51:17;1.10;99.90
15700;DHT22;7950;42.744;23.174;2023-12-20T09:53:47;1.20;99.90
15700;DHT22;7950;42.744;23.174;2023-12-20T09:56:16;1.30;99.90
15700;DHT22;7950;42.744;23.174;2023-12-20T09:58:45;1.30;99.90
15700;DHT22;7950;42.744;23.174;2023-12-20T10:01:15;1.40;99.90
15700;DHT22;7950;42.744;23.174;2023-12-20T10:03:45;1.50;99.90
15700;DHT22;7950;42.744;23.174;2023-12-20T10:06:14;1.60;99.90
15700;DHT22;7950;42.744;23.174;2023-12-20T10:08:44;1.60;99.90
15700;DHT22;7950;42.744;23.174;2023-12-20T10:11:13;1.70;99.90
15700;DHT22;7950;42.744;23.174;2023-12-20T10:13:42;1.80;99.90
15700;DHT22;7950;42.744;23.174;2023-12-20T10:16:11;1.80;99.90
15700;DHT22;7950;42.744;23.174;2023-12-20T10:18:39;1.90;99.90
15700;DHT22;7950;42.744;23.174;2023-12-20T10:21:08;1.90;99.90
15700;DHT22;7950;42.744;23.174;2023-12-20T10:23:38;1.90;99.90
15700;DHT22;7950;42.744;23.174;2023-12-20T10:26:09;1.90;99.90
15700;DHT22;7950;42.744;23.174;2023-12-20T10:28:40;1.90;99.90
15700;DHT22;7950;42.744;23.174;2023-12-20T10:31:09;1.70;99.90
15700;DHT22;7950;42.744;23.174;2023-12-20T10:33:40;1.60;99.90
15700;DHT22;7950;42.744;23.174;2023-12-20T10:36:09;1.50;99.90
15700;DHT22;7950;42.744;23.174;2023-12-20T10:38:42;1.50;99.90
15700;DHT22;7950;42.744;23.174;2023-12-20T10:41:14;1.50;99.90
15700;DHT22;7950;42.744;23.174;2023-12-20T10:43:47;1.50;99.90
15700;DHT22;7950;42.744;23.174;2023-12-20T10:46:17;1.50;99.90
15700;DHT22;7950;42.744;23.174;2023-12-20T10:48:47;1.60;99.90
15700;DHT22;7950;42.744;23.174;2023-12-20T10:51:18;1.70;99.90
15700;DHT22;7950;42.744;23.174;2023-12-20T10:53:50;1.80;99.90
15700;DHT22;7950;42.744;23.174;2023-12-20T10:56:20;2.00;99.90
15700;DHT22;7950;42.744;23.174;2023-12-20T10:58:50;2.20;99.90
15700;DHT22;7950;42.744;23.174;2023-12-20T11:01:19;2.40;99.90
15700;DHT22;7950;42.744;23.174;2023-12-20T11:03:50;2.60;99.90
15700;DHT22;7950;42.744;23.174;2023-12-20T11:06:32;2.70;99.90
15700;DHT22;7950;42.744;23.174;2023-12-20T11:09:14;2.80;99.90
15700;DHT22;7950;42.744;23.174;2023-12-20T11:11:59;3.00;99.90
15700;DHT22;7950;42.744;23.174;2023-12-20T11:14:39;2.90;99.90
15700;DHT22;7950;42.744;23.174;2023-12-20T11:17:13;2.90;99.90
15700;DHT22;7950;42.744;23.174;2023-12-20T11:20:04;2.70;99.90
15700;DHT22;7950;42.744;23.174;2023-12-20T11:22:35;2.60;99.90
15700;DHT22;7950;42.744;23.174;2023-12-20T11:25:09;2.50;99.90
15700;DHT22;7950;42.744;23.174;2023-12-20T11:27:42;2.50;99.90
15700;DHT22;7950;42.744;23.174;2023-12-20T11:30:15;2.40;99.90
15700;DHT22;7950;42.744;23.174;2023-12-20T11:32:46;2.50;99.90
15700;DHT22;7950;42.744;23.174;2023-12-20T11:35:19;2.50;99.90
15700;DHT22;7950;42.744;23.174;2023-12-20T11:37:48;2.60;99.90
15700;DHT22;7950;42.744;23.174;2023-12-20T11:40:18;2.60;99.90
15700;DHT22;7950;42.744;23.174;2023-12-20T11:42:51;2.60;99.90
15700;DHT22;7950;42.744;23.174;2023-12-20T11:45:23;2.70;99.90
15700;DHT22;7950;42.744;23.174;2023-12-20T11:47:57;2.90;99.90
15700;DHT22;7950;42.744;23.174;2023-12-20T11:50:26;3.10;99.90
15700;DHT22;7950;42.744;23.174;2023-12-20T11:52:55;3.30;99.90
15700;DHT22;7950;42.744;23.174;2023-12-20T11:55:24;3.60;99.90
15700;DHT22;7950;42.744;23.174;2023-12-20T11:57:54;3.90;99.90
15700;DHT22;7950;42.744;23.174;2023-12-20T12:00:23;4.20;99.90
15700;DHT22;7950;42.744;23.174;2023-12-20T12:02:56;4.40;99.90
15700;DHT22;7950;42.744;23.174;2023-12-20T12:05:26;4.50;99.90
15700;DHT22;7950;42.744;23.174;2023-12-20T12:07:54;4.60;99.90
15700;DHT22;7950;42.744;23.174;2023-12-20T12:10:24;4.70;99.90
15700;DHT22;7950;42.744;23.174;2023-12-20T12:12:54;4.80;99.90
15700;DHT22;7950;42.744;23.174;2023-12-20T12:15:23;4.90;99.90
15700;DHT22;7950;42.744;23.174;2023-12-20T12:17:55;4.90;99.90
15700;DHT22;7950;42.744;23.174;2023-12-20T12:20:24;5.00;99.90
15700;DHT22;7950;42.744;23.174;2023-12-20T12:22:59;5.00;99.90
15700;DHT22;7950;42.744;23.174;2023-12-20T12:25:29;4.90;99.90
15700;DHT22;7950;42.744;23.174;2023-12-20T12:44:11;4.80;99.90
15700;DHT22;7950;42.744;23.174;2023-12-20T12:46:44;4.40;99.90
15700;DHT22;7950;42.744;23.174;2023-12-20T12:49:14;4.30;99.90
15700;DHT22;7950;42.744;23.174;2023-12-20T12:51:42;4.00;99.90
15700;DHT22;7950;42.744;23.174;2023-12-20T12:54:12;3.70;99.90
15700;DHT22;7950;42.744;23.174;2023-12-20T12:56:43;3.50;99.90
15700;DHT22;7950;42.744;23.174;2023-12-20T12:59:15;3.30;99.90
15700;DHT22;7950;42.744;23.174;2023-12-20T13:01:44;3.20;99.90
15700;DHT22;7950;42.744;23.174;2023-12-20T13:04:13;3.10;99.90
15700;DHT22;7950;42.744;23.174;2023-12-20T13:06:42;3.10;99.90
15700;DHT22;7950;42.744;23.174;2023-12-20T13:09:10;3.00;99.90
15700;DHT22;7950;42.744;23.174;2023-12-20T13:11:39;2.90;99.90
15700;DHT22;7950;42.744;23.174;2023-12-20T13:14:07;2.80;99.90
15700;DHT22;7950;42.744;23.174;2023-12-20T13:16:42;2.80;99.90
15700;DHT22;7950;42.744;23.174;2023-12-20T13:19:12;2.70;99.90
15700;DHT22;7950;42.744;23.174;2023-12-20T13:21:41;2.60;99.90
15700;DHT22;7950;42.744;23.174;2023-12-20T13:24:09;2.60;99.90
15700;DHT22;7950;42.744;23.174;2023-12-20T13:26:38;2.60;99.90
15700;DHT22;7950;42.744;23.174;2023-12-20T13:29:07;2.50;99.90
15700;DHT22;7950;42.744;23.174;2023-12-20T13:31:35;2.40;99.90
15700;DHT22;7950;42.744;23.174;2023-12-20T13:34:06;2.50;99.90
15700;DHT22;7950;42.744;23.174;2023-12-20T13:36:35;2.50;99.90
15700;DHT22;7950;42.744;23.174;2023-12-20T13:39:04;2.50;99.90
15700;DHT22;7950;42.744;23.174;2023-12-20T13:41:34;2.50;99.90
15700;DHT22;7950;42.744;23.174;2023-12-20T13:44:02;2.40;99.90
15700;DHT22;7950;42.744;23.174;2023-12-20T13:46:31;2.40;99.90
15700;DHT22;7950;42.744;23.174;2023-12-20T13:49:00;2.30;99.90
15700;DHT22;7950;42.744;23.174;2023-12-20T13:51:30;2.20;99.90
15700;DHT22;7950;42.744;23.174;2023-12-20T13:53:59;2.10;99.90
15700;DHT22;7950;42.744;23.174;2023-12-20T13:56:27;2.10;99.90
15700;DHT22;7950;42.744;23.174;2023-12-20T13:58:56;2.00;99.90
15700;DHT22;7950;42.744;23.174;2023-12-20T14:01:26;2.00;99.90
15700;DHT22;7950;42.744;23.174;2023-12-20T14:03:55;2.00;99.90
15700;DHT22;7950;42.744;23.174;2023-12-20T14:06:24;2.00;99.90
15700;DHT22;7950;42.744;23.174;2023-12-20T14:08:54;2.00;99.90
15700;DHT22;7950;42.744;23.174;2023-12-20T14:11:22;2.00;99.90
15700;DHT22;7950;42.744;23.174;2023-12-20T14:13:51;1.90;99.90
15700;DHT22;7950;42.744;23.174;2023-12-20T14:16:24;2.00;99.90
15700;DHT22;7950;42.744;23.174;2023-12-20T14:18:53;2.00;99.90
15700;DHT22;7950;42.744;23.174;2023-12-20T14:21:24;2.00;99.90
15700;DHT22;7950;42.744;23.174;2023-12-20T14:23:54;2.00;99.90
15700;DHT22;7950;42.744;23.174;2023-12-20T14:26:23;2.00;99.90
15700;DHT22;7950;42.744;23.174;2023-12-20T14:28:51;2.00;99.90
15700;DHT22;7950;42.744;23.174;2023-12-20T14:31:20;1.90;99.90
15700;DHT22;7950;42.744;23.174;2023-12-20T14:33:51;1.90;99.90
15700;DHT22;7950;42.744;23.174;2023-12-20T14:36:21;1.90;99.90
15700;DHT22;7950;42.744;23.174;2023-12-20T14:38:50;1.90;99.90
15700;DHT22;7950;42.744;23.174;2023-12-20T14:41:20;1.80;99.90
15700;DHT22;7950;42.744;23.174;2023-12-20T14:43:51;1.70;99.90
15700;DHT22;7950;42.744;23.174;2023-12-20T14:46:20;1.70;99.90
15700;DHT22;7950;42.744;23.174;2023-12-20T14:48:49;1.60;99.90
15700;DHT22;7950;42.744;23.174;2023-12-20T14:51:17;1.70;99.90
15700;DHT22;7950;42.744;23.174;2023-12-20T14:53:47;1.60;99.90
15700;DHT22;7950;42.744;23.174;2023-12-20T14:56:16;1.50;99.90
15700;DHT22;7950;42.744;23.174;2023-12-20T14:58:46;1.50;99.90
15700;DHT22;7950;42.744;23.174;2023-12-20T15:01:14;1.50;99.90
15700;DHT22;7950;42.744;23.174;2023-12-20T15:03:44;1.40;99.90
15700;DHT22;7950;42.744;23.174;2023-12-20T15:06:13;1.40;99.90
15700;DHT22;7950;42.744;23.174;2023-12-20T15:08:42;1.40;99.90
15700;DHT22;7950;42.744;23.174;2023-12-20T15:11:11;1.40;99.90
15700;DHT22;7950;42.744;23.174;2023-12-20T15:13:40;1.40;99.90
15700;DHT22;7950;42.744;23.174;2023-12-20T15:16:11;1.30;99.90
15700;DHT22;7950;42.744;23.174;2023-12-20T15:18:39;1.30;99.90
15700;DHT22;7950;42.744;23.174;2023-12-20T15:21:08;1.20;99.90
15700;DHT22;7950;42.744;23.174;2023-12-20T15:23:37;1.20;99.90
15700;DHT22;7950;42.744;23.174;2023-12-20T15:26:07;1.20;99.90
15700;DHT22;7950;42.744;23.174;2023-12-20T15:28:36;1.10;99.90
15700;DHT22;7950;42.744;23.174;2023-12-20T15:31:05;1.10;99.90
15700;DHT22;7950;42.744;23.174;2023-12-20T15:33:35;1.00;99.90
15700;DHT22;7950;42.744;23.174;2023-12-20T15:36:04;1.10;99.90
15700;DHT22;7950;42.744;23.174;2023-12-20T15:38:34;1.00;99.90
15700;DHT22;7950;42.744;23.174;2023-12-20T15:41:03;1.00;99.90
15700;DHT22;7950;42.744;23.174;2023-12-20T15:43:31;0.90;99.90
15700;DHT22;7950;42.744;23.174;2023-12-20T15:46:00;0.90;99.90
15700;DHT22;7950;42.744;23.174;2023-12-20T15:48:32;0.90;99.90
15700;DHT22;7950;42.744;23.174;2023-12-20T15:51:06;0.90;99.90
15700;DHT22;7950;42.744;23.174;2023-12-20T15:53:35;0.90;99.90
15700;DHT22;7950;42.744;23.174;2023-12-20T15:56:05;1.00;99.90
15700;DHT22;7950;42.744;23.174;2023-12-20T15:58:34;0.90;99.90
15700;DHT22;7950;42.744;23.174;2023-12-20T16:01:03;0.90;99.90
15700;DHT22;7950;42.744;23.174;2023-12-20T16:03:32;0.90;99.90
15700;DHT22;7950;42.744;23.174;2023-12-20T16:06:11;0.90;99.90
15700;DHT22;7950;42.744;23.174;2023-12-20T16:08:41;0.90;99.90
15700;DHT22;7950;42.744;23.174;2023-12-20T16:11:09;0.90;99.90